createdAt,value
2018-03-16T00:00:35.520Z,3.10
2018-03-16T00:03:03.887Z,3.10
2018-03-16T00:05:32.167Z,3.10
2018-03-16T00:08:00.452Z,3.10
2018-03-16T00:10:28.739Z,3.00
2018-03-16T00:12:57.011Z,3.00
2018-03-16T00:15:26.060Z,2.90
2018-03-16T00:17:54.339Z,3.00
2018-03-16T00:20:22.639Z,3.00
2018-03-16T00:22:51.016Z,3.00
2018-03-16T00:25:19.400Z,3.00
2018-03-16T00:27:49.203Z,3.10
2018-03-16T00:30:17.498Z,3.10
2018-03-16T00:32:45.859Z,3.10
2018-03-16T00:35:14.231Z,3.10
2018-03-16T00:37:42.987Z,3.10
2018-03-16T00:40:11.314Z,3.10
2018-03-16T00:42:39.611Z,3.10
2018-03-16T00:45:08.656Z,3.00
2018-03-16T00:47:37.047Z,3.00
2018-03-16T00:50:05.731Z,3.00
2018-03-16T00:52:34.112Z,3.10
2018-03-16T00:55:02.386Z,3.10
2018-03-16T00:57:30.672Z,3.00
2018-03-16T00:59:58.941Z,3.00
2018-03-16T01:02:27.318Z,3.00
2018-03-16T01:04:55.594Z,3.00
2018-03-16T01:07:23.890Z,3.00
2018-03-16T01:09:52.939Z,3.00
2018-03-16T01:12:21.200Z,3.00
2018-03-16T01:14:49.486Z,3.00
2018-03-16T01:17:17.772Z,3.10
2018-03-16T01:19:46.061Z,3.10
2018-03-16T01:22:14.353Z,3.00
2018-03-16T01:24:42.639Z,3.10
2018-03-16T01:27:11.683Z,3.00
2018-03-16T01:29:39.983Z,3.00
2018-03-16T01:32:08.266Z,3.00
2018-03-16T01:34:36.543Z,3.00
2018-03-16T01:37:04.920Z,3.00
2018-03-16T01:39:33.209Z,3.00
2018-03-16T01:42:02.263Z,3.00
2018-03-16T01:44:30.571Z,3.00
2018-03-16T01:46:58.848Z,3.00
2018-03-16T01:49:27.147Z,3.00
2018-03-16T01:51:56.182Z,3.10
2018-03-16T01:54:24.462Z,3.00
2018-03-16T01:56:52.743Z,3.10
2018-03-16T01:59:21.028Z,3.00
2018-03-16T02:01:49.308Z,3.00
2018-03-16T02:04:17.691Z,3.10
2018-03-16T02:06:46.055Z,3.00
2018-03-16T02:09:14.438Z,3.00
2018-03-16T02:11:42.730Z,3.00
2018-03-16T02:14:11.086Z,3.00
2018-03-16T02:16:40.091Z,3.00
2018-03-16T02:19:08.367Z,3.00
2018-03-16T02:21:36.635Z,3.00
2018-03-16T02:24:05.019Z,3.00
2018-03-16T02:26:33.393Z,3.00
2018-03-16T02:29:01.767Z,3.00
2018-03-16T02:31:30.152Z,3.00
2018-03-16T02:33:58.527Z,3.00
2018-03-16T02:36:26.904Z,3.00
2018-03-16T02:38:55.192Z,3.00
2018-03-16T02:41:23.545Z,2.90
2018-03-16T02:43:51.826Z,3.00
2018-03-16T02:46:20.105Z,2.90
2018-03-16T02:48:48.388Z,3.00
2018-03-16T02:51:16.748Z,3.00
2018-03-16T02:53:45.038Z,3.00
2018-03-16T02:56:13.308Z,3.00
2018-03-16T02:58:41.722Z,3.00
2018-03-16T03:01:10.800Z,3.00
2018-03-16T03:03:39.198Z,2.90
2018-03-16T03:06:07.545Z,3.00
2018-03-16T03:08:35.832Z,3.00
2018-03-16T03:11:04.919Z,3.00
2018-03-16T03:13:33.203Z,3.00
2018-03-16T03:16:01.491Z,3.00
2018-03-16T03:18:30.539Z,2.90
2018-03-16T03:20:58.839Z,2.90
2018-03-16T03:23:27.127Z,2.90
2018-03-16T03:25:55.489Z,2.90
2018-03-16T03:28:23.868Z,2.80
2018-03-16T03:30:53.655Z,2.80
2018-03-16T03:33:21.933Z,2.80
2018-03-16T03:35:50.492Z,2.80
2018-03-16T03:38:18.815Z,2.80
2018-03-16T03:40:47.104Z,2.70
2018-03-16T03:43:15.380Z,2.80
2018-03-16T03:45:44.456Z,2.80
2018-03-16T03:48:12.831Z,2.80
2018-03-16T03:50:41.211Z,2.90
2018-03-16T03:53:09.592Z,2.80
2018-03-16T03:55:39.504Z,2.80
2018-03-16T03:58:07.884Z,2.80
2018-03-16T04:00:36.265Z,2.80
2018-03-16T04:03:04.637Z,2.90
2018-03-16T04:05:34.433Z,2.80
2018-03-16T04:08:02.717Z,2.80
2018-03-16T04:10:31.101Z,2.80
2018-03-16T04:12:59.389Z,2.80
2018-03-16T04:15:27.668Z,2.70
2018-03-16T04:17:56.723Z,2.80
2018-03-16T04:20:25.025Z,2.70
2018-03-16T04:22:54.815Z,2.70
2018-03-16T04:25:23.112Z,2.70
2018-03-16T04:27:51.420Z,2.80
2018-03-16T04:30:20.472Z,2.80
2018-03-16T04:32:48.756Z,2.80
2018-03-16T04:35:17.131Z,2.70
2018-03-16T04:37:46.231Z,2.70
2018-03-16T04:40:14.511Z,2.70
2018-03-16T04:42:42.792Z,2.70
2018-03-16T04:45:11.081Z,2.70
2018-03-16T04:47:40.155Z,2.70
2018-03-16T04:50:08.532Z,2.70
2018-03-16T04:52:36.813Z,2.70
2018-03-16T04:55:05.091Z,2.70
2018-03-16T04:57:33.456Z,2.70
2018-03-16T05:00:01.751Z,2.70
2018-03-16T05:02:30.807Z,2.60
2018-03-16T05:04:59.074Z,2.60
2018-03-16T05:07:27.363Z,2.60
2018-03-16T05:09:55.644Z,2.60
2018-03-16T05:12:24.028Z,2.60
2018-03-16T05:14:52.406Z,2.50
2018-03-16T05:17:20.698Z,2.50
2018-03-16T05:19:49.062Z,2.60
2018-03-16T05:22:17.359Z,2.60
2018-03-16T05:24:46.403Z,2.50
2018-03-16T05:27:14.703Z,2.50
2018-03-16T05:29:43.075Z,2.50
2018-03-16T05:32:11.381Z,2.50
2018-03-16T05:34:40.455Z,2.50
2018-03-16T05:37:08.732Z,2.40
2018-03-16T05:39:37.783Z,2.40
2018-03-16T05:42:06.409Z,2.40
2018-03-16T05:44:34.793Z,2.40
2018-03-16T05:47:03.072Z,2.30
2018-03-16T05:49:31.352Z,2.30
2018-03-16T05:52:00.085Z,2.30
2018-03-16T05:54:28.396Z,2.20
2018-03-16T05:56:56.880Z,2.10
2018-03-16T05:59:25.361Z,2.00
2018-03-16T06:01:53.623Z,1.90
2018-03-16T06:04:21.921Z,1.90
2018-03-16T06:06:50.905Z,1.80
2018-03-16T06:09:19.180Z,1.70
2018-03-16T06:11:47.559Z,1.70
2018-03-16T06:14:15.835Z,1.70
2018-03-16T06:16:44.204Z,1.60
2018-03-16T06:19:12.485Z,1.50
2018-03-16T06:21:40.761Z,1.50
2018-03-16T06:24:09.127Z,1.50
2018-03-16T06:26:37.512Z,1.40
2018-03-16T06:29:05.898Z,1.40
2018-03-16T06:31:34.168Z,1.30
2018-03-16T06:34:02.448Z,1.30
2018-03-16T06:36:32.236Z,1.20
2018-03-16T06:39:00.512Z,1.20
2018-03-16T06:41:28.801Z,1.20
2018-03-16T06:43:57.080Z,1.20
2018-03-16T06:46:25.363Z,1.20
2018-03-16T06:48:53.643Z,1.10
2018-03-16T06:51:21.920Z,1.10
2018-03-16T06:53:50.987Z,1.10
2018-03-16T06:56:19.380Z,1.10
2018-03-16T06:58:47.663Z,1.10
2018-03-16T07:01:16.020Z,1.10
2018-03-16T07:03:44.336Z,1.10
2018-03-16T07:06:13.404Z,1.10
2018-03-16T07:08:41.780Z,1.10
2018-03-16T07:11:10.060Z,1.10
2018-03-16T07:13:38.409Z,1.10
2018-03-16T07:16:06.692Z,1.10
2018-03-16T07:18:34.986Z,1.10
2018-03-16T07:21:03.274Z,1.00
2018-03-16T07:23:31.552Z,1.00
2018-03-16T07:26:00.634Z,1.00
2018-03-16T07:28:28.925Z,1.00
2018-03-16T07:30:58.077Z,0.90
2018-03-16T07:33:26.376Z,0.90
2018-03-16T07:35:54.752Z,1.00
2018-03-16T07:38:23.134Z,0.90
2018-03-16T07:40:51.503Z,0.90
2018-03-16T07:43:19.888Z,0.90
2018-03-16T07:45:53.912Z,0.90
2018-03-16T07:48:22.208Z,1.00
2018-03-16T07:50:50.560Z,1.00
2018-03-16T07:53:18.928Z,0.90
2018-03-16T07:55:47.359Z,0.90
2018-03-16T07:58:15.887Z,0.90
2018-03-16T08:00:44.230Z,0.90
2018-03-16T08:03:12.684Z,0.90
2018-03-16T08:05:42.078Z,0.90
2018-03-16T08:08:11.192Z,0.90
2018-03-16T08:10:40.232Z,0.90
2018-03-16T08:13:08.520Z,0.90
2018-03-16T08:15:37.224Z,0.90
2018-03-16T08:18:06.304Z,0.90
2018-03-16T08:20:34.679Z,0.90
2018-03-16T08:23:03.055Z,0.90
2018-03-16T08:25:31.335Z,0.90
2018-03-16T08:27:59.743Z,0.90
2018-03-16T08:30:28.033Z,0.90
2018-03-16T08:32:56.468Z,0.90
2018-03-16T08:35:24.740Z,0.90
2018-03-16T08:37:53.023Z,0.90
2018-03-16T08:40:21.299Z,0.90
2018-03-16T08:42:49.584Z,0.90
2018-03-16T08:45:18.631Z,0.90
2018-03-16T08:47:47.099Z,0.90
2018-03-16T08:50:15.452Z,0.90
2018-03-16T08:52:43.808Z,0.90
2018-03-16T08:55:12.176Z,0.90
2018-03-16T08:57:40.456Z,0.90
2018-03-16T09:00:08.735Z,0.90
2018-03-16T09:02:37.099Z,0.90
2018-03-16T09:05:05.427Z,0.80
2018-03-16T09:07:33.699Z,0.90
2018-03-16T09:10:01.984Z,0.90
2018-03-16T09:12:30.342Z,0.80
2018-03-16T09:14:58.588Z,0.90
2018-03-16T09:17:27.638Z,0.80
2018-03-16T09:19:55.905Z,0.80
2018-03-16T09:22:24.487Z,0.80
2018-03-16T09:24:52.855Z,0.80
2018-03-16T09:27:21.140Z,0.80
2018-03-16T09:29:49.432Z,0.80
2018-03-16T09:32:17.827Z,0.90
2018-03-16T09:34:46.119Z,0.80
2018-03-16T09:37:14.495Z,0.80
2018-03-16T09:39:42.770Z,0.80
2018-03-16T09:42:11.147Z,0.80
2018-03-16T09:44:39.525Z,0.80
2018-03-16T09:47:07.810Z,0.80
2018-03-16T09:49:36.176Z,0.80
2018-03-16T09:52:04.443Z,0.80
2018-03-16T09:54:53.516Z,0.80
2018-03-16T09:57:21.893Z,0.70
2018-03-16T09:59:50.184Z,0.80
2018-03-16T10:02:18.651Z,0.80
2018-03-16T10:04:46.920Z,0.80
2018-03-16T10:07:15.300Z,0.80
2018-03-16T10:09:43.672Z,0.80
2018-03-16T10:12:12.052Z,0.80
2018-03-16T10:14:40.428Z,0.80
2018-03-16T10:17:08.710Z,0.70
2018-03-16T10:19:36.987Z,0.70
2018-03-16T10:22:05.366Z,0.80
2018-03-16T10:24:33.731Z,0.80
2018-03-16T10:27:01.998Z,0.70
2018-03-16T10:29:30.396Z,0.70
2018-03-16T10:31:58.664Z,0.60
2018-03-16T10:34:26.935Z,0.70
2018-03-16T10:36:55.211Z,0.70
2018-03-16T10:39:23.483Z,0.60
2018-03-16T10:41:51.767Z,0.70
2018-03-16T10:44:20.148Z,0.60
2018-03-16T10:46:48.724Z,0.70
2018-03-16T10:49:17.003Z,0.60
2018-03-16T10:51:45.377Z,0.60
2018-03-16T10:54:13.656Z,0.60
2018-03-16T10:56:41.927Z,0.60
2018-03-16T10:59:10.313Z,0.60
2018-03-16T11:01:44.268Z,0.60
2018-03-16T11:04:13.444Z,0.50
2018-03-16T11:09:43.116Z,0.50
2018-03-16T11:12:11.423Z,0.50
2018-03-16T11:14:39.691Z,0.50
2018-03-16T11:17:07.981Z,0.50
2018-03-16T11:19:36.353Z,0.50
2018-03-16T11:22:04.720Z,0.50
2018-03-16T11:24:33.104Z,0.50
2018-03-16T11:27:01.492Z,0.50
2018-03-16T11:29:29.768Z,0.50
2018-03-16T11:31:58.035Z,0.50
2018-03-16T11:34:26.419Z,0.50
2018-03-16T11:36:54.789Z,0.60
2018-03-16T11:39:23.163Z,0.50
2018-03-16T11:41:51.439Z,0.50
2018-03-16T11:44:19.711Z,0.50
2018-03-16T11:46:48.093Z,0.50
2018-03-16T11:49:16.400Z,0.60
2018-03-16T11:51:45.577Z,0.60
2018-03-16T11:54:15.383Z,0.50
2018-03-16T11:56:43.656Z,0.50
2018-03-16T11:59:11.932Z,0.50
2018-03-16T12:01:40.212Z,0.50
2018-03-16T12:04:08.487Z,0.50
2018-03-16T12:06:36.762Z,0.60
2018-03-16T12:09:05.145Z,0.70
2018-03-16T12:11:34.924Z,0.70
2018-03-16T12:14:03.225Z,0.70
2018-03-16T12:16:31.497Z,0.80
2018-03-16T12:18:59.870Z,0.80
2018-03-16T12:21:28.171Z,0.70
2018-03-16T12:23:57.220Z,0.70
2018-03-16T12:26:25.492Z,0.70
2018-03-16T12:28:53.803Z,0.70
2018-03-16T12:31:22.074Z,0.80
2018-03-16T12:33:50.452Z,0.80
2018-03-16T12:36:18.829Z,0.80
2018-03-16T12:38:47.112Z,0.80
2018-03-16T12:41:15.475Z,0.80
2018-03-16T12:43:43.963Z,0.80
2018-03-16T12:46:12.236Z,0.80
2018-03-16T12:48:42.020Z,0.70
2018-03-16T12:51:10.295Z,0.70
2018-03-16T12:53:38.577Z,0.70
2018-03-16T12:56:06.848Z,0.70
2018-03-16T12:58:35.148Z,0.70
2018-03-16T13:01:03.447Z,0.60
2018-03-16T13:03:32.510Z,0.60
2018-03-16T13:06:00.888Z,0.60
2018-03-16T13:08:29.267Z,0.60
2018-03-16T13:10:57.556Z,0.50
2018-03-16T13:13:25.820Z,0.40
2018-03-16T13:15:54.199Z,0.40
2018-03-16T13:18:22.471Z,0.50
2018-03-16T13:20:50.753Z,0.50
2018-03-16T13:23:19.275Z,0.50
2018-03-16T13:25:47.527Z,0.50
2018-03-16T13:28:16.574Z,0.60
2018-03-16T13:30:44.854Z,0.60
2018-03-16T13:33:13.147Z,0.60
2018-03-16T13:35:41.436Z,0.60
2018-03-16T13:38:09.715Z,0.60
2018-03-16T13:40:38.077Z,0.60
2018-03-16T13:43:06.360Z,0.50
2018-03-16T13:45:34.740Z,0.50
2018-03-16T13:48:03.286Z,0.40
2018-03-16T13:50:31.555Z,0.30
2018-03-16T13:52:59.837Z,0.20
2018-03-16T13:55:28.148Z,0.30
2018-03-16T13:57:56.515Z,0.40
2018-03-16T14:00:24.895Z,0.50
2018-03-16T14:02:53.217Z,0.40
2018-03-16T14:05:22.269Z,0.50
2018-03-16T14:07:50.644Z,0.50
2018-03-16T14:10:18.978Z,0.40
2018-03-16T14:12:47.307Z,0.40
2018-03-16T14:15:15.680Z,0.40
2018-03-16T14:17:44.062Z,0.40
2018-03-16T14:20:12.508Z,0.30
2018-03-16T14:22:40.816Z,0.10
2018-03-16T14:25:09.112Z,0.10
2018-03-16T14:27:38.155Z,0.10
2018-03-16T14:30:06.429Z,0.10
2018-03-16T14:32:34.719Z,0.10
2018-03-16T14:35:03.120Z,0.10
2018-03-16T14:37:31.396Z,0.10
2018-03-16T14:39:59.760Z,0.10
2018-03-16T14:42:28.051Z,0.00
2018-03-16T14:44:56.428Z,0.00
2018-03-16T14:47:24.709Z,0.00
2018-03-16T14:49:52.988Z,0.00
2018-03-16T14:52:21.357Z,-0.10
2018-03-16T14:54:49.647Z,-0.20
2018-03-16T14:57:18.760Z,-0.30
2018-03-16T14:59:47.103Z,-0.30
2018-03-16T15:02:15.489Z,-0.30
2018-03-16T15:04:43.755Z,-0.40
2018-03-16T15:07:12.125Z,-0.50
2018-03-16T15:09:40.503Z,-0.50
2018-03-16T15:12:08.818Z,-0.60
2018-03-16T15:14:37.100Z,-0.60
2018-03-16T15:17:05.393Z,-0.60
2018-03-16T15:19:33.684Z,-0.60
2018-03-16T15:22:01.987Z,-0.60
2018-03-16T15:24:30.234Z,-0.60
2018-03-16T15:26:58.524Z,-0.70
2018-03-16T15:29:26.870Z,-0.70
2018-03-16T15:31:55.142Z,-0.70
2018-03-16T15:34:23.419Z,-0.70
2018-03-16T15:36:51.704Z,-0.70
2018-03-16T15:39:19.982Z,-0.60
2018-03-16T15:41:48.285Z,-0.60
2018-03-16T15:44:16.601Z,-0.60
2018-03-16T15:46:45.619Z,-0.70
2018-03-16T15:49:14.795Z,-0.70
2018-03-16T15:51:43.867Z,-0.80
2018-03-16T15:54:12.891Z,-0.90
2018-03-16T15:56:41.185Z,-0.90
2018-03-16T15:59:09.459Z,-0.90
2018-03-16T16:01:37.718Z,-0.90
2018-03-16T16:04:05.979Z,-0.90
2018-03-16T16:06:34.285Z,-0.90
2018-03-16T16:09:02.540Z,-0.90
2018-03-16T16:11:30.841Z,-0.90
2018-03-16T16:13:59.284Z,-0.90
2018-03-16T16:16:27.586Z,-0.90
2018-03-16T16:18:55.870Z,-0.90
2018-03-16T16:21:24.168Z,-1.00
2018-03-16T16:23:52.413Z,-1.00
2018-03-16T16:26:20.767Z,-1.00
2018-03-16T16:28:49.028Z,-1.00
2018-03-16T16:31:17.300Z,-1.10
2018-03-16T16:33:46.326Z,-1.20
2018-03-16T16:36:14.588Z,-1.20
2018-03-16T16:38:42.891Z,-1.20
2018-03-16T16:41:11.138Z,-1.20
2018-03-16T16:43:39.393Z,-1.30
2018-03-16T16:46:08.427Z,-1.30
2018-03-16T16:48:36.722Z,-1.30
2018-03-16T16:51:04.973Z,-1.30
2018-03-16T16:53:33.229Z,-1.40
2018-03-16T16:56:01.525Z,-1.40
2018-03-16T16:58:29.811Z,-1.40
2018-03-16T17:00:58.076Z,-1.50
2018-03-16T17:03:26.321Z,-1.50
2018-03-16T17:05:54.582Z,-1.50
2018-03-16T17:08:23.606Z,-1.50
2018-03-16T17:10:51.919Z,-1.50
2018-03-16T17:13:20.171Z,-1.50
2018-03-16T17:15:48.554Z,-1.50
2018-03-16T17:18:16.810Z,-1.40
2018-03-16T17:20:45.071Z,-1.30
2018-03-16T17:23:13.482Z,-1.30
2018-03-16T17:25:41.743Z,-1.30
2018-03-16T17:28:09.998Z,-1.30
2018-03-16T17:30:38.312Z,-1.30
2018-03-16T17:33:06.677Z,-1.30
2018-03-16T17:35:34.931Z,-1.30
2018-03-16T17:38:03.240Z,-1.40
2018-03-16T17:40:31.490Z,-1.40
2018-03-16T17:42:59.752Z,-1.50
2018-03-16T17:45:28.001Z,-1.60
2018-03-16T17:47:57.021Z,-1.70
2018-03-16T17:50:25.341Z,-1.70
2018-03-16T17:52:53.813Z,-1.80
2018-03-16T17:55:22.106Z,-1.70
2018-03-16T17:57:50.336Z,-1.80
2018-03-16T18:00:18.625Z,-1.80
2018-03-16T18:02:46.969Z,-1.80
2018-03-16T18:05:15.996Z,-1.80
2018-03-16T18:07:44.243Z,-1.80
2018-03-16T18:10:12.521Z,-1.80
2018-03-16T18:12:40.792Z,-1.90
2018-03-16T18:15:09.818Z,-1.90
2018-03-16T18:17:38.066Z,-1.90
2018-03-16T18:20:06.371Z,-1.90
2018-03-16T18:22:34.626Z,-1.90
2018-03-16T18:25:02.930Z,-1.90
2018-03-16T18:27:31.203Z,-1.90
2018-03-16T18:29:59.479Z,-2.00
2018-03-16T18:32:27.731Z,-2.00
2018-03-16T18:34:56.093Z,-2.00
2018-03-16T18:37:24.397Z,-2.00
2018-03-16T18:39:52.652Z,-2.00
2018-03-16T18:42:20.905Z,-2.00
2018-03-16T18:44:50.126Z,-1.90
2018-03-16T18:47:18.393Z,-1.90
2018-03-16T18:49:46.697Z,-1.90
2018-03-16T18:52:14.961Z,-1.90
2018-03-16T18:54:43.237Z,-2.00
2018-03-16T18:57:11.527Z,-1.90
2018-03-16T18:59:39.786Z,-1.90
2018-03-16T19:02:08.034Z,-1.90
2018-03-16T19:04:36.482Z,-1.90
2018-03-16T19:07:04.837Z,-2.00
2018-03-16T19:09:33.095Z,-2.00
2018-03-16T19:12:01.390Z,-2.00
2018-03-16T19:14:29.649Z,-2.00
2018-03-16T19:16:57.907Z,-2.10
2018-03-16T19:19:26.163Z,-2.10
2018-03-16T19:21:55.306Z,-2.10
2018-03-16T19:24:23.666Z,-2.10
2018-03-16T19:26:51.914Z,-2.10
2018-03-16T19:29:20.949Z,-2.10
2018-03-16T19:31:49.227Z,-2.20
2018-03-16T19:34:17.478Z,-2.20
2018-03-16T19:36:45.766Z,-2.20
2018-03-16T19:39:14.018Z,-2.20
2018-03-16T19:41:42.285Z,-2.20
2018-03-16T19:44:11.322Z,-2.20
2018-03-16T19:46:39.595Z,-2.20
2018-03-16T19:49:07.845Z,-2.20
2018-03-16T19:51:36.152Z,-2.20
2018-03-16T19:54:04.403Z,-2.20
2018-03-16T19:56:32.726Z,-2.20
2018-03-16T19:59:00.978Z,-2.10
2018-03-16T20:01:29.247Z,-2.10
2018-03-16T20:03:57.530Z,-2.20
2018-03-16T20:06:25.796Z,-2.10
2018-03-16T20:08:54.033Z,-2.10
2018-03-16T20:11:23.074Z,-2.10
2018-03-16T20:13:51.330Z,-2.20
2018-03-16T20:16:19.574Z,-2.10
2018-03-16T20:18:48.597Z,-2.20
2018-03-16T20:21:16.848Z,-2.20
2018-03-16T20:23:45.788Z,-2.20
2018-03-16T20:26:14.041Z,-2.20
2018-03-16T20:28:42.317Z,-2.20
2018-03-16T20:31:10.581Z,-2.20
2018-03-16T20:33:38.846Z,-2.10
2018-03-16T20:36:07.106Z,-2.20
2018-03-16T20:38:36.133Z,-2.20
2018-03-16T20:41:04.422Z,-2.20
2018-03-16T20:43:32.698Z,-2.20
2018-03-16T20:46:00.950Z,-2.10
2018-03-16T20:48:29.206Z,-2.20
2018-03-16T20:50:58.219Z,-2.20
2018-03-16T20:53:26.476Z,-2.20
2018-03-16T20:55:55.493Z,-2.20
2018-03-16T20:58:23.773Z,-2.20
2018-03-16T21:00:52.033Z,-2.30
2018-03-16T21:03:20.338Z,-2.30
2018-03-16T21:05:48.925Z,-2.30
2018-03-16T21:08:17.324Z,-2.30
2018-03-16T21:10:45.574Z,-2.30
2018-03-16T21:13:13.859Z,-2.30
2018-03-16T21:15:42.110Z,-2.20
2018-03-16T21:18:10.741Z,-2.30
2018-03-16T21:20:38.985Z,-2.20
2018-03-16T21:23:07.362Z,-2.30
2018-03-16T21:25:35.654Z,-2.30
2018-03-16T21:28:03.958Z,-2.30
2018-03-16T21:30:33.070Z,-2.40
2018-03-16T21:33:02.167Z,-2.40
2018-03-16T21:35:31.180Z,-2.40
2018-03-16T21:37:59.705Z,-2.40
2018-03-16T21:40:28.431Z,-2.30
2018-03-16T21:42:57.639Z,-2.40
2018-03-16T21:45:25.881Z,-2.40
2018-03-16T21:47:55.034Z,-2.40
2018-03-16T21:50:23.344Z,-2.40
2018-03-16T21:52:51.610Z,-2.40
2018-03-16T21:55:20.035Z,-2.40
2018-03-16T21:57:48.551Z,-2.40
2018-03-16T22:00:17.796Z,-2.40
2018-03-16T22:02:46.169Z,-2.40
2018-03-16T22:05:15.198Z,-2.50
2018-03-16T22:07:43.450Z,-2.40
2018-03-16T22:10:12.465Z,-2.40
2018-03-16T22:12:40.719Z,-2.50
2018-03-16T22:15:09.742Z,-2.50
2018-03-16T22:17:37.990Z,-2.50
2018-03-16T22:20:07.058Z,-2.50
2018-03-16T22:22:35.398Z,-2.50
2018-03-16T22:25:03.654Z,-2.50
2018-03-16T22:27:31.905Z,-2.50
2018-03-16T22:30:01.037Z,-2.50
2018-03-16T22:32:29.334Z,-2.60
2018-03-16T22:34:57.557Z,-2.50
2018-03-16T22:37:25.814Z,-2.60
2018-03-16T22:39:54.860Z,-2.60
2018-03-16T22:42:23.139Z,-2.60
2018-03-16T22:44:51.418Z,-2.60
2018-03-16T22:47:19.694Z,-2.70
2018-03-16T22:49:47.957Z,-2.70
2018-03-16T22:52:16.216Z,-2.70
2018-03-16T22:54:44.475Z,-2.70
2018-03-16T22:57:13.502Z,-2.80
2018-03-16T22:59:41.760Z,-2.80
2018-03-16T23:02:10.029Z,-2.80
2018-03-16T23:04:38.290Z,-2.80
2018-03-16T23:07:07.321Z,-2.90
2018-03-16T23:09:35.583Z,-2.90
2018-03-16T23:12:03.878Z,-2.90
2018-03-16T23:14:32.146Z,-2.90
2018-03-16T23:17:00.389Z,-2.90
2018-03-16T23:19:28.698Z,-2.90
2018-03-16T23:21:56.965Z,-3.00
2018-03-16T23:24:25.279Z,-3.00
2018-03-16T23:26:53.976Z,-3.00
2018-03-16T23:29:22.324Z,-3.00
2018-03-16T23:31:50.586Z,-3.00
2018-03-16T23:34:18.833Z,-3.00
2018-03-16T23:36:47.100Z,-3.10
2018-03-16T23:39:15.357Z,-3.10
2018-03-16T23:41:45.129Z,-3.10
2018-03-16T23:44:13.398Z,-3.10
2018-03-16T23:46:41.658Z,-3.20
2018-03-16T23:49:09.953Z,-3.10
2018-03-16T23:51:38.302Z,-3.10
2018-03-16T23:54:06.565Z,-3.20
2018-03-16T23:56:35.701Z,-3.20
2018-03-16T23:59:03.949Z,-3.20
